createdAt,value
2023-04-09T00:54:05.623Z,100.00
2023-04-09T02:29:13.412Z,100.00
2023-04-09T02:30:48.917Z,100.00
2023-04-09T02:32:23.850Z,100.00
2023-04-09T02:33:57.738Z,100.00
2023-04-09T02:35:38.109Z,100.00
2023-04-09T02:37:10.371Z,100.00
2023-04-09T02:38:43.102Z,100.00
2023-04-09T02:40:15.328Z,100.00
2023-04-09T02:41:50.133Z,100.00
2023-04-09T02:43:22.500Z,100.00
2023-04-09T02:44:57.015Z,100.00
2023-04-09T02:46:31.252Z,100.00
2023-04-09T02:48:03.579Z,100.00
2023-04-09T03:41:48.220Z,100.00
2023-04-09T03:43:24.884Z,100.00
2023-04-09T03:45:10.254Z,100.00
2023-04-09T03:46:56.222Z,100.00
2023-04-09T03:48:35.158Z,100.00
2023-04-09T03:50:24.169Z,100.00
2023-04-09T03:52:06.532Z,100.00
2023-04-09T03:54:21.396Z,100.00
2023-04-09T04:51:05.793Z,100.00
2023-04-09T04:52:57.600Z,100.00
2023-04-09T04:54:37.330Z,100.00
2023-04-09T04:56:16.256Z,100.00
2023-04-09T04:58:05.192Z,100.00
2023-04-09T05:00:22.884Z,100.00
2023-04-09T05:02:11.917Z,100.00
2023-04-09T05:05:04.734Z,100.00
2023-04-09T05:07:46.861Z,100.00
2023-04-09T05:09:32.828Z,100.00
2023-04-09T05:20:05.572Z,100.00
2023-04-09T05:26:06.241Z,100.00
2023-04-09T05:28:19.385Z,100.00
2023-04-09T05:30:06.468Z,100.00
2023-04-09T05:31:43.363Z,100.00
2023-04-09T05:34:24.814Z,100.00
2023-04-09T05:35:47.769Z,100.00
2023-04-09T05:37:21.083Z,100.00
2023-04-09T05:38:56.806Z,100.00
2023-04-09T07:59:06.215Z,100.00
2023-04-09T08:00:29.174Z,100.00
2023-04-09T08:02:15.215Z,100.00
2023-04-09T08:03:47.969Z,100.00
2023-04-09T08:05:23.908Z,100.00
2023-04-09T08:07:04.093Z,100.00
2023-04-09T08:08:38.633Z,100.00
2023-04-09T08:10:16.868Z,100.00
2023-04-09T08:11:53.160Z,100.00
2023-04-09T08:13:28.298Z,100.00
2023-04-09T08:15:00.700Z,100.00
2023-04-09T08:16:33.262Z,100.00
2023-04-09T08:24:56.291Z,100.00
2023-04-09T08:29:19.946Z,100.00
2023-04-09T08:30:53.048Z,100.00
2023-04-09T08:32:25.547Z,100.00
2023-04-09T08:33:57.763Z,100.00
2023-04-09T08:35:35.280Z,100.00
2023-04-09T08:37:21.169Z,100.00
2023-04-09T08:38:56.433Z,100.00
2023-04-09T08:40:45.867Z,100.00
2023-04-09T08:42:23.097Z,100.00
2023-04-09T08:43:58.783Z,100.00
2023-04-09T08:45:54.381Z,100.00
2023-04-09T08:47:30.200Z,100.00
2023-04-09T08:49:03.276Z,100.00
2023-04-09T08:50:56.649Z,100.00
2023-04-09T08:52:35.183Z,100.00
2023-04-09T08:54:20.530Z,100.00
2023-04-09T08:55:55.504Z,100.00
2023-04-09T08:57:33.529Z,100.00
2023-04-09T08:59:10.274Z,100.00
2023-04-09T09:00:42.709Z,100.00
2023-04-09T09:04:19.556Z,100.00
2023-04-09T09:05:52.936Z,100.00
2023-04-09T09:07:30.709Z,100.00
2023-04-09T09:09:08.462Z,100.00
2023-04-09T09:11:12.793Z,100.00
2023-04-09T09:12:46.874Z,100.00
2023-04-09T09:14:21.314Z,100.00
2023-04-09T09:15:56.708Z,100.00
2023-04-09T09:17:28.834Z,100.00
2023-04-09T09:19:02.265Z,93.20
2023-04-09T09:20:34.340Z,91.13
2023-04-09T09:22:08.704Z,100.00
2023-04-09T09:23:41.503Z,99.38
2023-04-09T09:25:13.489Z,91.34
2023-04-09T09:26:45.695Z,94.14
2023-04-09T09:28:17.827Z,89.87
2023-04-09T09:29:49.996Z,91.76
2023-04-09T09:31:25.689Z,82.16
2023-04-09T09:33:08.796Z,79.15
2023-04-09T09:34:40.859Z,80.49
2023-04-09T09:36:14.512Z,77.76
2023-04-09T09:38:01.767Z,79.53
2023-04-09T09:39:54.457Z,78.57
2023-04-09T09:41:34.306Z,75.88
2023-04-09T09:43:06.384Z,67.72
2023-04-09T09:44:38.485Z,71.52
2023-04-09T09:46:11.676Z,70.59
2023-04-09T09:47:44.781Z,83.53
2023-04-09T09:49:16.875Z,76.07
2023-04-09T09:50:54.714Z,79.19
2023-04-09T09:52:32.657Z,75.06
2023-04-09T09:54:05.731Z,79.96
2023-04-09T09:55:46.304Z,65.79
2023-04-09T09:57:20.166Z,63.96
2023-04-09T09:59:19.376Z,63.00
2023-04-09T10:00:52.589Z,62.74
2023-04-09T10:02:24.976Z,61.40
2023-04-09T10:04:02.295Z,64.70
2023-04-09T10:05:39.733Z,66.17
2023-04-09T10:07:13.087Z,64.54
2023-04-09T10:08:49.723Z,72.13
2023-04-09T10:10:26.567Z,61.65
2023-04-09T10:12:03.798Z,60.15
2023-04-09T10:13:44.556Z,58.00
2023-04-09T10:15:16.956Z,68.24
2023-04-09T10:16:54.456Z,68.61
2023-04-09T10:18:26.685Z,61.11
2023-04-09T10:20:19.052Z,59.75
2023-04-09T10:21:56.808Z,60.02
2023-04-09T10:23:46.112Z,62.05
2023-04-09T10:25:28.899Z,58.77
2023-04-09T10:27:54.706Z,58.00
2023-04-09T10:29:29.784Z,56.94
2023-04-09T10:31:05.298Z,55.72
2023-04-09T10:32:40.472Z,56.05
2023-04-09T10:34:21.981Z,53.12
2023-04-09T10:36:01.693Z,52.78
2023-04-09T10:37:37.222Z,53.82
2023-04-09T10:39:15.277Z,59.70
2023-04-09T10:40:54.311Z,64.61
2023-04-09T10:42:42.554Z,70.68
2023-04-09T10:44:21.764Z,74.70
2023-04-09T10:45:58.290Z,70.89
2023-04-09T10:47:34.554Z,73.66
2023-04-09T10:49:15.850Z,76.16
2023-04-09T10:50:51.603Z,71.30
2023-04-09T10:52:30.838Z,64.57
2023-04-09T10:54:09.033Z,64.56
2023-04-09T10:55:51.655Z,60.18
2023-04-09T10:57:26.755Z,61.51
2023-04-09T10:59:03.755Z,60.44
2023-04-09T11:00:41.455Z,58.79
2023-04-09T11:02:41.095Z,56.76
2023-04-09T11:04:17.745Z,56.00
2023-04-09T11:06:09.578Z,54.14
2023-04-09T11:07:58.377Z,56.41
2023-04-09T11:09:38.288Z,58.17
2023-04-09T11:11:13.648Z,62.58
2023-04-09T11:13:07.798Z,54.89
2023-04-09T11:14:40.024Z,58.03
2023-04-09T11:16:12.958Z,53.52
2023-04-09T11:17:56.433Z,52.28
2023-04-09T11:19:28.763Z,51.27
2023-04-09T11:21:07.021Z,55.03
2023-04-09T11:22:39.430Z,52.91
2023-04-09T11:24:13.121Z,53.61
2023-04-09T11:25:49.413Z,53.89
2023-04-09T11:27:22.053Z,53.57
2023-04-09T11:28:58.469Z,52.75
2023-04-09T11:30:31.720Z,53.40
2023-04-09T11:32:05.703Z,52.86
2023-04-09T11:33:41.131Z,52.58
2023-04-09T11:35:14.839Z,52.85
2023-04-09T11:36:52.734Z,50.49
2023-04-09T11:38:24.999Z,50.34
2023-04-09T11:39:58.634Z,50.71
2023-04-09T11:41:37.921Z,50.27
2023-04-09T11:43:10.257Z,49.38
2023-04-09T11:44:42.854Z,48.62
2023-04-09T11:46:17.358Z,50.29
2023-04-09T11:47:51.861Z,50.91
2023-04-09T11:49:25.943Z,51.78
2023-04-09T11:50:58.503Z,53.53
2023-04-09T11:52:33.124Z,54.31
2023-04-09T11:54:15.517Z,50.14
2023-04-09T11:56:02.142Z,51.76
2023-04-09T11:57:41.917Z,55.98
2023-04-09T11:59:22.428Z,52.16
2023-04-09T12:01:07.376Z,51.54
2023-04-09T12:02:49.834Z,51.34
2023-04-09T12:04:26.474Z,52.97
2023-04-09T12:06:12.350Z,51.16
2023-04-09T12:08:06.820Z,51.00
2023-04-09T12:09:56.145Z,50.96
2023-04-09T12:11:36.924Z,49.84
2023-04-09T12:13:11.505Z,51.13
2023-04-09T12:14:49.043Z,51.10
2023-04-09T12:16:21.729Z,48.82
2023-04-09T12:18:06.848Z,48.10
2023-04-09T12:19:41.358Z,47.92
2023-04-09T12:21:13.711Z,47.82
2023-04-09T12:39:17.853Z,75.28
2023-04-09T12:40:50.159Z,85.81
2023-04-09T12:42:22.528Z,72.42
2023-04-09T12:43:57.244Z,73.27
2023-04-09T12:45:29.811Z,79.28
2023-04-09T12:47:02.572Z,82.78
2023-04-09T12:48:34.722Z,72.94
2023-04-09T12:50:08.657Z,61.18
2023-04-09T12:51:40.919Z,61.58
2023-04-09T12:53:12.969Z,62.96
2023-04-09T12:54:45.402Z,62.81
2023-04-09T12:56:20.578Z,64.79
2023-04-09T12:57:52.844Z,69.77
2023-04-09T12:59:24.864Z,68.56
2023-04-09T13:00:57.931Z,65.35
2023-04-09T13:02:30.773Z,60.55
2023-04-09T13:04:03.184Z,59.31
2023-04-09T13:05:40.924Z,63.59
2023-04-09T13:07:15.965Z,70.23
2023-04-09T13:08:48.098Z,59.13
2023-04-09T13:10:20.140Z,59.33
2023-04-09T13:11:52.433Z,56.94
2023-04-09T13:13:25.414Z,60.26
2023-04-09T13:14:57.759Z,63.24
2023-04-09T13:16:29.944Z,60.04
2023-04-09T13:18:02.016Z,57.12
2023-04-09T13:19:52.196Z,55.69
2023-04-09T13:21:32.943Z,55.12
2023-04-09T13:23:05.048Z,55.89
2023-04-09T13:24:37.860Z,55.53
2023-04-09T13:26:09.830Z,57.73
2023-04-09T13:27:41.985Z,56.63
2023-04-09T13:29:14.023Z,55.49
2023-04-09T13:30:46.095Z,57.64
2023-04-09T13:32:27.442Z,57.74
2023-04-09T13:33:59.673Z,54.04
2023-04-09T13:44:30.178Z,54.13
2023-04-09T13:46:02.439Z,55.38
2023-04-09T13:47:34.955Z,54.55
2023-04-09T13:49:07.291Z,55.91
2023-04-09T13:50:39.294Z,53.18
2023-04-09T13:52:11.973Z,53.37
2023-04-09T13:53:46.065Z,53.67
2023-04-09T13:55:18.323Z,55.58
2023-04-09T13:56:51.673Z,54.19
2023-04-09T13:58:29.800Z,53.00
2023-04-09T14:00:04.727Z,54.08
2023-04-09T14:01:37.351Z,55.45
2023-04-09T14:05:30.063Z,54.12
2023-04-09T14:07:02.206Z,52.91
2023-04-09T14:08:34.768Z,54.08
2023-04-09T14:10:09.211Z,51.24
2023-04-09T14:11:41.504Z,53.54
2023-04-09T14:13:13.840Z,51.37
2023-04-09T14:14:46.136Z,51.79
2023-04-09T14:16:18.412Z,50.23
2023-04-09T14:17:51.225Z,51.51
2023-04-09T14:19:23.395Z,49.65
2023-04-09T14:20:57.280Z,50.37
2023-04-09T14:22:30.183Z,52.02
2023-04-09T14:24:02.918Z,50.56
2023-04-09T14:25:35.330Z,49.10
2023-04-09T14:27:10.027Z,48.79
2023-04-09T14:28:43.538Z,49.64
2023-04-09T14:30:15.925Z,50.14
2023-04-09T14:31:48.044Z,51.23
2023-04-09T14:33:20.937Z,49.35
2023-04-09T14:34:53.091Z,50.74
2023-04-09T14:36:25.244Z,49.14
2023-04-09T14:37:57.510Z,49.04
2023-04-09T14:39:29.708Z,48.46
2023-04-09T14:41:02.051Z,50.83
2023-04-09T14:42:34.389Z,54.89
2023-04-09T14:44:06.558Z,49.12
2023-04-09T14:45:38.887Z,49.68
2023-04-09T14:47:12.048Z,49.03
2023-04-09T14:48:48.203Z,48.13
2023-04-09T14:50:20.862Z,48.65
2023-04-09T14:51:53.034Z,48.73
2023-04-09T14:53:25.793Z,48.96
2023-04-09T14:54:57.829Z,48.01
2023-04-09T14:56:40.073Z,48.73
2023-04-09T14:58:13.660Z,49.98
2023-04-09T14:59:45.946Z,48.01
2023-04-09T15:01:18.368Z,49.16
2023-04-09T15:02:54.454Z,48.63
2023-04-09T15:04:27.634Z,52.59
2023-04-09T15:06:00.169Z,51.28
2023-04-09T15:09:55.575Z,47.68
2023-04-09T15:11:29.180Z,47.87
2023-04-09T15:13:10.176Z,48.96
2023-04-09T15:14:42.360Z,48.67
2023-04-09T15:16:27.410Z,48.69
2023-04-09T15:18:06.262Z,49.65
2023-04-09T15:19:38.615Z,49.60
2023-04-09T15:21:11.068Z,48.34
2023-04-09T15:22:46.380Z,49.00
2023-04-09T15:24:18.663Z,48.39
2023-04-09T15:25:51.357Z,49.21
2023-04-09T15:27:23.602Z,49.32
2023-04-09T15:29:04.755Z,50.25
2023-04-09T15:30:44.903Z,49.44
2023-04-09T15:32:17.361Z,48.26
2023-04-09T15:33:58.219Z,49.40
2023-04-09T15:35:42.927Z,47.48
2023-04-09T15:37:41.549Z,48.51
2023-04-09T15:39:16.152Z,48.98
2023-04-09T15:40:49.439Z,50.14
2023-04-09T15:42:23.757Z,50.87
2023-04-09T15:43:56.005Z,49.62
2023-04-09T15:45:28.688Z,48.82
2023-04-09T15:47:01.190Z,48.45
2023-04-09T15:48:33.493Z,49.22
2023-04-09T15:50:06.345Z,49.79
2023-04-09T15:51:38.356Z,50.45
2023-04-09T15:53:10.694Z,49.68
2023-04-09T15:54:42.861Z,50.38
2023-04-09T15:56:17.241Z,50.25
2023-04-09T15:57:49.876Z,50.37
2023-04-09T15:59:22.049Z,50.59
2023-04-09T16:00:54.278Z,50.18
2023-04-09T16:02:27.862Z,51.09
2023-04-09T16:04:00.677Z,51.54
2023-04-09T16:05:42.153Z,49.86
2023-04-09T16:07:16.559Z,49.87
2023-04-09T16:08:48.771Z,50.17
2023-04-09T16:10:21.101Z,50.44
2023-04-09T16:11:53.368Z,49.64
2023-04-09T16:13:25.779Z,49.24
2023-04-09T16:14:59.023Z,50.95
2023-04-09T16:16:31.192Z,49.70
2023-04-09T16:18:05.995Z,50.46
2023-04-09T16:19:39.706Z,49.61
2023-04-09T16:21:12.873Z,50.49
2023-04-09T16:22:45.047Z,51.04
2023-04-09T16:24:17.250Z,51.76
2023-04-09T16:25:49.651Z,49.61
2023-04-09T16:27:22.295Z,48.72
2023-04-09T16:28:54.761Z,50.38
2023-04-09T16:32:47.083Z,49.44
2023-04-09T16:34:19.563Z,49.72
2023-04-09T16:36:00.590Z,50.35
2023-04-09T16:37:44.694Z,50.89
2023-04-09T16:39:20.841Z,50.16
2023-04-09T16:41:45.285Z,50.83
2023-04-09T16:43:25.401Z,52.07
2023-04-09T16:45:00.412Z,51.63
2023-04-09T16:46:48.190Z,51.11
2023-04-09T16:48:46.663Z,52.42
2023-04-09T16:55:43.383Z,51.44
2023-04-09T16:57:25.948Z,52.93
2023-04-09T16:59:02.028Z,53.80
2023-04-09T17:00:35.771Z,53.15
2023-04-09T17:02:08.047Z,54.09
2023-04-09T17:03:40.448Z,53.58
2023-04-09T17:05:12.860Z,54.54
2023-04-09T17:06:45.166Z,53.83
2023-04-09T17:08:24.569Z,55.27
2023-04-09T17:09:57.377Z,56.15
2023-04-09T17:11:29.612Z,55.49
2023-04-09T17:13:01.799Z,54.35
2023-04-09T17:14:47.597Z,54.63
2023-04-09T17:16:22.518Z,55.00
2023-04-09T17:17:59.166Z,55.10
2023-04-09T17:19:31.248Z,54.62
2023-04-09T17:21:03.688Z,55.14
2023-04-09T17:22:36.013Z,54.89
2023-04-09T17:24:08.115Z,55.43
2023-04-09T17:25:40.284Z,54.85
2023-04-09T17:27:12.967Z,54.62
2023-04-09T17:28:46.898Z,55.60
2023-04-09T17:30:18.858Z,55.95
2023-04-09T17:31:53.957Z,57.31
2023-04-09T17:33:29.426Z,56.90
2023-04-09T17:35:03.764Z,56.71
2023-04-09T17:36:35.998Z,56.02
2023-04-09T17:38:24.598Z,56.14
2023-04-09T17:39:59.358Z,56.66
2023-04-09T17:43:24.739Z,57.25
2023-04-09T17:44:57.142Z,57.22
2023-04-09T17:46:30.566Z,57.75
2023-04-09T17:48:04.348Z,58.76
2023-04-09T17:49:36.598Z,58.70
2023-04-09T17:51:12.269Z,59.62
2023-04-09T17:53:15.807Z,58.38
2023-04-09T17:55:08.283Z,60.05
2023-04-09T17:56:46.470Z,59.77
2023-04-09T17:58:22.129Z,59.30
2023-04-09T18:00:01.853Z,61.55
2023-04-09T18:01:55.283Z,61.36
2023-04-09T18:03:36.995Z,61.91
2023-04-09T18:05:10.114Z,63.24
2023-04-09T18:06:54.339Z,61.59
2023-04-09T18:11:10.982Z,61.22
2023-04-09T18:12:54.049Z,61.74
2023-04-09T18:14:32.982Z,63.31
2023-04-09T18:16:18.371Z,64.36
2023-04-09T18:17:55.174Z,63.58
2023-04-09T18:19:34.541Z,63.76
2023-04-09T18:21:27.756Z,65.01
2023-04-09T18:23:46.186Z,65.15
2023-04-09T18:25:30.025Z,65.93
2023-04-09T18:27:12.339Z,69.72
2023-04-09T18:28:50.938Z,64.91
2023-04-09T18:30:47.209Z,66.99
2023-04-09T18:32:29.552Z,67.99
2023-04-09T18:34:09.163Z,67.04
2023-04-09T18:35:57.577Z,67.83
2023-04-09T18:38:00.307Z,67.72
2023-04-09T18:40:01.206Z,70.18
2023-04-09T18:41:34.660Z,71.59
2023-04-09T18:43:10.435Z,71.97
2023-04-09T18:44:44.996Z,72.58
2023-04-09T18:46:28.771Z,72.66
2023-04-09T18:48:13.579Z,71.10
2023-04-09T18:49:49.796Z,72.46
2023-04-09T18:51:28.757Z,72.08
2023-04-09T18:53:03.803Z,71.68
2023-04-09T18:55:10.998Z,75.65
2023-04-09T18:56:46.632Z,73.61
2023-04-09T18:58:21.998Z,74.35
2023-04-09T18:59:58.711Z,74.31
2023-04-09T19:01:33.929Z,75.67
2023-04-09T19:03:08.753Z,73.66
2023-04-09T19:04:44.477Z,77.00
2023-04-09T19:06:27.535Z,77.90
2023-04-09T19:08:08.211Z,78.17
2023-04-09T19:09:45.894Z,79.89
2023-04-09T19:11:18.269Z,77.17
2023-04-09T19:12:56.714Z,79.52
2023-04-09T19:14:34.581Z,82.86
2023-04-09T19:16:11.415Z,78.36
2023-04-09T19:17:43.867Z,80.91
2023-04-09T19:19:27.490Z,80.33
2023-04-09T19:21:03.001Z,81.09
2023-04-09T19:22:37.883Z,82.78
2023-04-09T19:24:14.760Z,83.43
2023-04-09T19:26:01.071Z,82.22
2023-04-09T19:27:44.644Z,83.12
2023-04-09T19:29:20.982Z,79.43
2023-04-09T19:30:54.077Z,80.88
2023-04-09T19:32:28.831Z,81.91
2023-04-09T19:34:12.566Z,81.49
2023-04-09T19:36:01.361Z,84.93
2023-04-09T19:37:39.472Z,84.32
2023-04-09T19:39:32.491Z,87.12
2023-04-09T19:41:17.448Z,86.92
2023-04-09T19:44:02.080Z,88.24
2023-04-09T19:45:09.417Z,88.38
2023-04-09T19:46:41.755Z,84.43
2023-04-09T19:48:18.739Z,87.05
2023-04-09T19:51:13.277Z,82.93
2023-04-09T19:54:06.186Z,90.46
2023-04-09T19:56:29.230Z,87.90
2023-04-09T19:59:07.839Z,86.42
2023-04-09T20:02:29.213Z,89.32
2023-04-09T20:09:25.844Z,89.58
2023-04-09T20:16:34.496Z,92.75
2023-04-09T20:18:06.472Z,92.04
2023-04-09T20:19:38.368Z,97.59
2023-04-09T20:21:14.544Z,92.04
2023-04-09T20:22:56.369Z,93.54
2023-04-09T20:24:28.725Z,94.17
2023-04-09T20:26:01.097Z,93.21
2023-04-09T20:27:33.361Z,91.09
2023-04-09T20:29:05.251Z,93.70
2023-04-09T20:30:37.171Z,92.27
2023-04-09T20:32:08.997Z,91.84
2023-04-09T20:33:40.920Z,91.11
2023-04-09T20:35:14.352Z,92.48
2023-04-09T20:36:47.902Z,91.29
2023-04-09T20:38:20.745Z,91.86
2023-04-09T20:39:52.584Z,89.18
2023-04-09T20:41:24.475Z,90.21
2023-04-09T20:42:56.631Z,90.44
2023-04-09T20:44:29.137Z,90.27
2023-04-09T20:46:01.069Z,91.16
2023-04-09T20:47:33.106Z,90.88
2023-04-09T20:49:07.289Z,92.60
2023-04-09T20:50:40.107Z,92.04
2023-04-09T20:52:11.922Z,91.52
2023-04-09T20:53:44.020Z,91.47
2023-04-09T20:55:17.763Z,92.87
2023-04-09T20:56:49.569Z,92.14
2023-04-09T20:58:21.844Z,91.52
2023-04-09T20:59:53.960Z,92.21
2023-04-09T21:01:27.657Z,91.81
2023-04-09T21:03:00.199Z,92.52
2023-04-09T21:04:32.279Z,91.70
2023-04-09T21:06:04.623Z,90.33
2023-04-09T21:07:36.462Z,90.74
2023-04-09T21:09:08.340Z,91.91
2023-04-09T21:10:40.164Z,92.95
2023-04-09T21:12:12.055Z,92.87
2023-04-09T21:13:53.852Z,92.71
2023-04-09T21:15:27.100Z,93.38
2023-04-09T21:16:58.962Z,91.50
2023-04-09T21:18:31.331Z,89.86
2023-04-09T21:20:03.322Z,92.38
2023-04-09T21:21:35.644Z,93.96
2023-04-09T21:23:07.885Z,91.39
2023-04-09T21:24:39.760Z,90.62
2023-04-09T21:26:12.076Z,92.80
2023-04-09T21:27:43.888Z,91.33
2023-04-09T21:29:15.871Z,93.41
2023-04-09T21:30:47.984Z,92.05
2023-04-09T21:32:19.916Z,93.60
2023-04-09T21:33:51.822Z,93.17
2023-04-09T21:35:23.732Z,92.13
2023-04-09T21:36:55.621Z,94.66
2023-04-09T21:38:27.467Z,92.97
2023-04-09T21:39:59.287Z,93.89
2023-04-09T21:41:31.458Z,91.69
2023-04-09T21:43:03.454Z,92.97
2023-04-09T21:44:35.520Z,92.78
2023-04-09T21:46:07.868Z,93.59
2023-04-09T21:47:39.876Z,93.36
2023-04-09T21:49:11.890Z,93.46
2023-04-09T21:50:43.755Z,93.63
2023-04-09T21:52:15.623Z,93.34
2023-04-09T21:53:47.806Z,93.54
2023-04-09T21:55:19.705Z,95.52
2023-04-09T21:56:51.546Z,95.20
2023-04-09T21:58:24.425Z,94.73
2023-04-09T21:59:56.309Z,95.62
2023-04-09T22:01:30.676Z,95.52
2023-04-09T22:03:02.704Z,95.91
2023-04-09T22:04:37.910Z,96.35
2023-04-09T22:06:10.612Z,96.67
2023-04-09T22:07:42.722Z,94.98
2023-04-09T22:09:14.617Z,98.15
2023-04-09T22:10:46.581Z,97.85
2023-04-09T22:12:18.439Z,96.47
2023-04-09T22:13:51.819Z,97.70
2023-04-09T22:15:23.725Z,97.22
2023-04-09T22:16:58.461Z,98.47
2023-04-09T22:18:30.432Z,98.96
2023-04-09T22:20:02.683Z,98.61
2023-04-09T22:21:34.532Z,99.27
2023-04-09T22:23:06.449Z,100.00
2023-04-09T22:24:39.477Z,99.05
2023-04-09T22:26:11.390Z,98.65
2023-04-09T22:27:44.110Z,99.57
2023-04-09T22:29:16.083Z,99.82
2023-04-09T22:30:47.914Z,100.00
2023-04-09T22:32:21.244Z,100.00
2023-04-09T22:33:54.643Z,100.00
2023-04-09T22:35:26.570Z,100.00
2023-04-09T22:36:58.700Z,100.00
2023-04-09T22:38:30.587Z,100.00
2023-04-09T22:40:02.588Z,100.00
2023-04-09T22:41:34.465Z,100.00
2023-04-09T22:43:06.621Z,100.00
2023-04-09T22:44:39.823Z,100.00
2023-04-09T22:46:12.220Z,100.00
2023-04-09T22:47:45.596Z,100.00
2023-04-09T22:49:17.850Z,100.00
2023-04-09T22:50:50.584Z,100.00
2023-04-09T22:52:22.481Z,100.00
2023-04-09T22:53:54.328Z,100.00
2023-04-09T22:55:26.572Z,100.00
2023-04-09T22:56:58.469Z,100.00
2023-04-09T22:58:30.265Z,100.00
2023-04-09T23:00:02.178Z,100.00
2023-04-09T23:01:34.180Z,100.00
2023-04-09T23:03:06.432Z,100.00
2023-04-09T23:04:38.386Z,100.00
2023-04-09T23:06:10.290Z,100.00
2023-04-09T23:07:42.956Z,100.00
2023-04-09T23:09:14.778Z,100.00
2023-04-09T23:10:46.610Z,100.00
2023-04-09T23:12:18.404Z,100.00
2023-04-09T23:13:50.306Z,100.00
2023-04-09T23:15:22.122Z,100.00
2023-04-09T23:16:54.104Z,100.00
2023-04-09T23:18:25.940Z,100.00
2023-04-09T23:19:57.811Z,100.00
2023-04-09T23:21:29.626Z,100.00
2023-04-09T23:23:01.507Z,100.00
2023-04-09T23:24:33.373Z,100.00
2023-04-09T23:26:06.177Z,100.00
2023-04-09T23:27:38.060Z,100.00
2023-04-09T23:29:09.888Z,100.00
2023-04-09T23:30:41.788Z,100.00
2023-04-09T23:32:13.781Z,100.00
2023-04-09T23:33:45.714Z,100.00
2023-04-09T23:35:19.665Z,100.00
2023-04-09T23:36:51.897Z,100.00
2023-04-09T23:38:23.863Z,100.00
2023-04-09T23:39:55.759Z,100.00
2023-04-09T23:41:27.798Z,100.00
2023-04-09T23:42:59.675Z,100.00
2023-04-09T23:44:32.538Z,100.00
2023-04-09T23:46:04.394Z,100.00
2023-04-09T23:47:36.901Z,100.00
2023-04-09T23:49:08.749Z,100.00
2023-04-09T23:50:41.483Z,100.00
2023-04-09T23:52:13.263Z,100.00
2023-04-09T23:53:45.577Z,100.00
2023-04-09T23:55:17.463Z,100.00
2023-04-09T23:56:49.331Z,100.00
2023-04-09T23:58:22.007Z,100.00
2023-04-09T23:59:54.185Z,100.00
